createdAt,value
2023-03-26T00:01:51.159Z,96484.53
2023-03-26T00:04:19.932Z,96489.59
2023-03-26T00:06:48.988Z,96483.84
2023-03-26T00:09:17.728Z,96490.88
2023-03-26T00:11:46.597Z,96484.69
2023-03-26T00:14:17.530Z,96494.16
2023-03-26T00:16:47.682Z,96491.38
2023-03-26T00:19:15.406Z,96478.59
2023-03-26T00:21:42.785Z,96478.84
2023-03-26T00:24:16.267Z,96480.56
2023-03-26T00:26:44.889Z,96484.66
2023-03-26T00:29:14.048Z,96478.94
2023-03-26T00:31:46.192Z,96482.78
2023-03-26T00:34:15.750Z,96473.75
2023-03-26T00:36:43.990Z,96473.94
2023-03-26T00:39:11.350Z,96472.19
2023-03-26T00:41:43.076Z,96472.75
2023-03-26T00:44:11.593Z,96468.53
2023-03-26T00:46:39.328Z,96460.00
2023-03-26T00:49:11.115Z,96458.78
2023-03-26T00:51:39.383Z,96447.19
2023-03-26T00:54:08.551Z,96452.75
2023-03-26T00:56:37.136Z,96444.81
2023-03-26T00:59:04.845Z,96447.16
2023-03-26T01:01:32.474Z,96450.66
2023-03-26T01:04:27.522Z,96441.59
2023-03-26T01:07:02.921Z,96439.66
2023-03-26T01:09:37.260Z,96438.00
2023-03-26T01:12:08.756Z,96440.91
2023-03-26T01:14:38.427Z,96438.03
2023-03-26T01:17:08.444Z,96426.91
2023-03-26T01:19:47.531Z,96426.25
2023-03-26T01:22:25.734Z,96418.69
2023-03-26T01:24:54.180Z,96425.16
2023-03-26T01:28:09.238Z,96425.34
2023-03-26T01:30:49.631Z,96418.59
2023-03-26T01:33:30.025Z,96413.69
2023-03-26T01:36:40.601Z,96410.25
2023-03-26T01:39:38.908Z,96408.50
2023-03-26T01:42:20.915Z,96407.44
2023-03-26T01:45:06.821Z,96410.28
2023-03-26T01:47:36.721Z,96415.31
2023-03-26T01:50:04.393Z,96414.00
2023-03-26T01:52:31.693Z,96409.91
2023-03-26T01:54:59.696Z,96410.94
2023-03-26T01:57:56.295Z,96417.66
2023-03-26T02:00:37.098Z,96421.63
2023-03-26T02:03:27.994Z,96410.47
2023-03-26T02:06:15.865Z,96408.84
2023-03-26T02:09:17.487Z,96414.66
2023-03-26T02:11:47.151Z,96418.41
2023-03-26T02:14:15.607Z,96407.59
2023-03-26T02:16:46.969Z,96403.69
2023-03-26T02:19:22.057Z,96405.50
2023-03-26T02:21:51.591Z,96399.44
2023-03-26T02:24:20.812Z,96410.50
2023-03-26T02:26:50.028Z,96406.47
2023-03-26T02:29:21.305Z,96402.94
2023-03-26T02:31:49.986Z,96404.72
2023-03-26T02:34:17.881Z,96403.31
2023-03-26T02:36:53.376Z,96407.44
2023-03-26T02:39:21.096Z,96405.41
2023-03-26T02:42:02.866Z,96404.78
2023-03-26T02:44:33.323Z,96406.09
2023-03-26T02:47:00.700Z,96396.66
2023-03-26T02:49:47.605Z,96395.47
2023-03-26T02:52:40.862Z,96392.56
2023-03-26T02:55:08.792Z,96397.28
2023-03-26T02:57:36.986Z,96394.19
2023-03-26T03:00:16.874Z,96399.75
2023-03-26T03:02:48.541Z,96389.75
2023-03-26T03:05:33.418Z,96391.38
2023-03-26T03:08:28.288Z,96398.78
2023-03-26T03:11:12.147Z,96396.81
2023-03-26T03:13:44.605Z,96394.44
2023-03-26T03:16:12.674Z,96397.19
2023-03-26T03:18:40.463Z,96400.78
2023-03-26T03:21:08.368Z,96406.59
2023-03-26T03:23:35.766Z,96407.59
2023-03-26T03:26:27.719Z,96401.13
2023-03-26T03:28:57.672Z,96397.34
2023-03-26T03:31:27.121Z,96409.28
2023-03-26T03:33:59.964Z,96410.69
2023-03-26T03:36:30.537Z,96403.38
2023-03-26T03:39:05.250Z,96405.69
2023-03-26T03:41:33.207Z,96409.28
2023-03-26T03:44:03.234Z,96405.19
2023-03-26T03:46:32.869Z,96399.44
2023-03-26T03:49:00.385Z,96408.94
2023-03-26T03:51:33.037Z,96407.59
2023-03-26T03:54:03.608Z,96403.63
2023-03-26T03:57:02.278Z,96406.53
2023-03-26T03:59:47.355Z,96404.06
2023-03-26T04:02:26.781Z,96407.50
2023-03-26T04:04:58.744Z,96410.31
2023-03-26T04:07:27.152Z,96405.34
2023-03-26T04:10:09.534Z,96411.03
2023-03-26T04:12:55.880Z,96402.16
2023-03-26T04:15:43.879Z,96406.25
2023-03-26T04:18:11.834Z,96399.91
2023-03-26T04:20:47.864Z,96395.94
2023-03-26T04:23:22.580Z,96408.94
2023-03-26T04:25:57.938Z,96409.22
2023-03-26T04:28:53.375Z,96399.22
2023-03-26T04:31:29.560Z,96394.78
2023-03-26T04:34:24.520Z,96399.88
2023-03-26T04:37:14.366Z,96389.09
2023-03-26T04:39:46.912Z,96394.97
2023-03-26T04:42:46.277Z,96396.09
2023-03-26T04:45:23.239Z,96400.72
2023-03-26T04:47:58.382Z,96394.44
2023-03-26T04:50:27.152Z,96406.69
2023-03-26T04:52:56.913Z,96404.75
2023-03-26T04:56:37.140Z,96407.53
2023-03-26T04:59:35.084Z,96404.53
2023-03-26T05:02:06.538Z,96402.50
2023-03-26T05:04:43.970Z,96396.47
2023-03-26T05:07:17.162Z,96397.06
2023-03-26T05:09:48.229Z,96400.34
2023-03-26T05:12:17.310Z,96404.31
2023-03-26T05:15:15.444Z,96410.00
2023-03-26T05:18:02.973Z,96409.38
2023-03-26T05:20:40.645Z,96411.63
2023-03-26T05:23:10.761Z,96403.19
2023-03-26T05:25:48.881Z,96401.00
2023-03-26T05:28:20.849Z,96397.78
2023-03-26T05:30:55.977Z,96406.44
2023-03-26T05:33:25.210Z,96402.66
2023-03-26T05:36:19.327Z,96406.19
2023-03-26T05:38:52.319Z,96404.34
2023-03-26T05:41:38.337Z,96407.59
2023-03-26T05:44:06.018Z,96403.19
2023-03-26T05:46:33.310Z,96405.44
2023-03-26T05:49:01.126Z,96403.94
2023-03-26T05:51:33.252Z,96405.50
2023-03-26T05:54:17.926Z,96410.19
2023-03-26T05:57:03.879Z,96414.78
2023-03-26T05:59:50.858Z,96414.50
2023-03-26T06:02:36.625Z,96414.06
2023-03-26T06:05:23.799Z,96418.09
2023-03-26T06:08:11.359Z,96430.75
2023-03-26T06:10:40.028Z,96430.91
2023-03-26T06:13:07.516Z,96434.28
2023-03-26T06:15:38.154Z,96430.84
2023-03-26T06:18:23.142Z,96423.63
2023-03-26T06:21:18.884Z,96424.75
2023-03-26T06:23:56.896Z,96424.22
2023-03-26T06:26:43.457Z,96432.69
2023-03-26T06:29:30.989Z,96431.53
2023-03-26T06:32:19.822Z,96433.09
2023-03-26T06:35:10.005Z,96428.53
2023-03-26T06:37:37.835Z,96428.94
2023-03-26T06:40:06.061Z,96429.09
2023-03-26T06:43:07.450Z,96428.47
2023-03-26T06:46:07.200Z,96433.22
2023-03-26T06:48:34.500Z,96431.94
2023-03-26T06:51:23.663Z,96426.66
2023-03-26T06:54:17.378Z,96430.22
2023-03-26T06:56:52.327Z,96414.88
2023-03-26T06:59:57.663Z,96424.22
2023-03-26T07:02:53.851Z,96424.56
2023-03-26T07:05:41.785Z,96430.19
2023-03-26T07:08:35.493Z,96441.16
2023-03-26T07:11:25.503Z,96434.94
2023-03-26T07:14:13.111Z,96431.69
2023-03-26T07:17:06.950Z,96437.09
2023-03-26T07:19:46.522Z,96441.69
2023-03-26T07:22:25.417Z,96435.75
2023-03-26T07:25:06.778Z,96438.28
2023-03-26T07:28:31.016Z,96425.09
2023-03-26T07:31:25.029Z,96416.38
2023-03-26T07:35:20.751Z,96416.19
2023-03-26T07:38:06.762Z,96413.19
2023-03-26T07:41:25.580Z,96414.13
2023-03-26T07:44:29.216Z,96421.56
2023-03-26T07:47:47.803Z,96416.75
2023-03-26T07:50:35.435Z,96423.59
2023-03-26T07:53:09.186Z,96419.34
2023-03-26T07:56:26.840Z,96423.00
2023-03-26T07:59:38.400Z,96415.59
2023-03-26T08:02:52.964Z,96423.25
2023-03-26T08:06:15.404Z,96424.97
2023-03-26T08:09:17.863Z,96425.91
2023-03-26T08:13:00.130Z,96424.94
2023-03-26T08:15:32.625Z,96425.00
2023-03-26T08:18:21.998Z,96423.38
2023-03-26T08:21:14.130Z,96436.22
2023-03-26T08:24:18.294Z,96433.63
2023-03-26T08:26:49.092Z,96427.41
2023-03-26T08:29:46.975Z,96411.13
2023-03-26T08:32:18.399Z,96406.78
2023-03-26T08:34:46.857Z,96417.81
2023-03-26T08:37:14.700Z,96413.88
2023-03-26T08:39:42.570Z,96409.00
2023-03-26T08:42:46.761Z,96406.22
2023-03-26T08:45:57.566Z,96406.50
2023-03-26T08:49:08.286Z,96403.53
2023-03-26T08:51:42.447Z,96400.88
2023-03-26T08:54:39.969Z,96394.53
2023-03-26T08:57:23.498Z,96398.13
2023-03-26T09:00:31.199Z,96399.06
2023-03-26T09:03:25.834Z,96412.06
2023-03-26T09:06:14.507Z,96414.28
2023-03-26T09:09:26.069Z,96413.91
2023-03-26T09:12:39.598Z,96396.06
2023-03-26T09:15:55.998Z,96405.13
2023-03-26T09:18:47.954Z,96396.53
2023-03-26T09:21:43.840Z,96400.44
2023-03-26T09:24:35.711Z,96399.88
2023-03-26T09:28:01.016Z,96396.66
2023-03-26T09:30:56.152Z,96402.06
2023-03-26T09:33:52.227Z,96400.81
2023-03-26T09:36:54.550Z,96400.72
2023-03-26T09:40:02.725Z,96386.22
2023-03-26T09:43:10.426Z,96393.56
2023-03-26T09:46:00.764Z,96405.53
2023-03-26T09:48:48.847Z,96384.84
2023-03-26T09:51:40.972Z,96384.16
2023-03-26T09:54:39.299Z,96377.69
2023-03-26T09:57:38.679Z,96391.44
2023-03-26T10:00:35.649Z,96398.56
2023-03-26T10:03:15.091Z,96395.56
2023-03-26T10:05:53.194Z,96381.97
2023-03-26T10:08:28.496Z,96397.09
2023-03-26T10:11:08.483Z,96367.44
2023-03-26T10:14:29.193Z,96378.25
2023-03-26T10:17:15.592Z,96375.06
2023-03-26T10:20:13.169Z,96362.44
2023-03-26T10:22:52.377Z,96363.19
2023-03-26T10:26:17.387Z,96358.47
2023-03-26T10:29:20.726Z,96348.69
2023-03-26T10:32:20.221Z,96339.09
2023-03-26T10:35:14.952Z,96331.19
2023-03-26T10:38:11.427Z,96323.97
2023-03-26T10:40:56.662Z,96323.50
2023-03-26T10:43:57.838Z,96323.03
2023-03-26T10:46:52.754Z,96305.03
2023-03-26T10:49:54.860Z,96300.78
2023-03-26T10:52:27.858Z,96313.50
2023-03-26T10:55:29.044Z,96301.06
2023-03-26T10:58:03.796Z,96311.00
2023-03-26T11:00:34.871Z,96304.19
2023-03-26T11:03:33.675Z,96303.94
2023-03-26T11:06:54.163Z,96305.84
2023-03-26T11:10:03.080Z,96302.91
2023-03-26T11:12:51.601Z,96313.78
2023-03-26T11:15:40.678Z,96323.41
2023-03-26T11:18:32.437Z,96298.16
2023-03-26T11:21:26.319Z,96301.09
2023-03-26T11:24:23.707Z,96296.31
2023-03-26T11:27:15.224Z,96311.56
2023-03-26T11:30:02.006Z,96302.16
2023-03-26T11:32:46.140Z,96299.22
2023-03-26T11:35:45.978Z,96296.47
2023-03-26T11:38:23.834Z,96295.06
2023-03-26T11:40:55.890Z,96298.25
2023-03-26T11:44:26.441Z,96287.81
2023-03-26T11:47:04.070Z,96288.44
2023-03-26T11:49:31.986Z,96282.16
2023-03-26T11:51:59.291Z,96288.00
2023-03-26T11:54:26.638Z,96274.16
2023-03-26T11:57:04.505Z,96266.38
2023-03-26T12:00:17.543Z,96252.19
2023-03-26T12:02:47.471Z,96235.75
2023-03-26T12:05:33.672Z,96236.16
2023-03-26T12:08:17.810Z,96231.06
2023-03-26T12:11:00.111Z,96228.97
2023-03-26T12:13:43.176Z,96240.66
2023-03-26T12:16:17.422Z,96236.00
2023-03-26T12:18:57.229Z,96215.59
2023-03-26T12:21:24.524Z,96226.31
2023-03-26T12:23:56.450Z,96218.25
2023-03-26T12:26:56.816Z,96210.81
2023-03-26T12:29:23.996Z,96210.97
2023-03-26T12:32:02.945Z,96198.28
2023-03-26T12:34:35.395Z,96198.63
2023-03-26T12:37:05.603Z,96199.53
2023-03-26T12:40:07.770Z,96200.97
2023-03-26T12:44:48.737Z,96190.88
2023-03-26T12:45:40.817Z,96190.50
2023-03-26T12:48:13.105Z,96188.41
2023-03-26T12:50:47.589Z,96183.09
2023-03-26T12:54:01.313Z,96179.91
2023-03-26T12:56:49.986Z,96177.31
2023-03-26T13:00:06.679Z,96170.34
2023-03-26T13:03:03.231Z,96159.41
2023-03-26T13:06:03.190Z,96161.50
2023-03-26T13:09:06.711Z,96156.41
2023-03-26T13:11:51.924Z,96151.81
2023-03-26T13:14:31.400Z,96150.28
2023-03-26T13:17:11.036Z,96151.81
2023-03-26T13:20:25.338Z,96142.84
2023-03-26T13:23:27.292Z,96136.88
2023-03-26T13:26:31.670Z,96142.75
2023-03-26T13:29:36.772Z,96133.25
2023-03-26T13:32:35.588Z,96141.50
2023-03-26T13:35:36.932Z,96132.84
2023-03-26T13:38:40.802Z,96132.38
2023-03-26T13:41:29.160Z,96127.28
2023-03-26T13:44:45.919Z,96110.34
2023-03-26T13:47:29.173Z,96115.00
2023-03-26T13:50:14.482Z,96103.19
2023-03-26T13:53:12.365Z,96118.34
2023-03-26T13:55:54.716Z,96120.00
2023-03-26T13:58:47.500Z,96114.13
2023-03-26T14:01:34.966Z,96107.25
2023-03-26T14:04:32.657Z,96114.31
2023-03-26T14:07:08.837Z,96120.44
2023-03-26T14:10:07.384Z,96111.97
2023-03-26T14:13:00.585Z,96109.69
2023-03-26T14:15:40.785Z,96112.28
2023-03-26T14:18:33.642Z,96102.28
2023-03-26T14:21:07.402Z,96105.84
2023-03-26T14:24:08.722Z,96094.94
2023-03-26T14:26:45.055Z,96093.13
2023-03-26T14:30:05.257Z,96096.00
2023-03-26T14:32:40.962Z,96083.28
2023-03-26T14:35:35.198Z,96075.38
2023-03-26T14:38:44.196Z,96079.50
2023-03-26T14:41:24.881Z,96076.28
2023-03-26T14:44:47.808Z,96074.44
2023-03-26T14:47:21.099Z,96072.19
2023-03-26T14:50:06.662Z,96076.53
2023-03-26T14:52:52.220Z,96067.38
2023-03-26T14:55:48.570Z,96062.66
2023-03-26T14:58:54.380Z,96066.56
2023-03-26T15:01:40.285Z,96068.81
2023-03-26T15:04:58.079Z,96057.06
2023-03-26T15:07:52.689Z,96052.59
2023-03-26T15:11:14.188Z,96049.09
2023-03-26T15:14:11.937Z,96056.13
2023-03-26T15:17:18.715Z,96051.59
2023-03-26T15:20:10.885Z,96050.75
2023-03-26T15:22:46.715Z,96046.84
2023-03-26T15:25:51.602Z,96043.13
2023-03-26T15:28:58.512Z,96046.28
2023-03-26T15:32:07.748Z,96041.16
2023-03-26T15:34:59.740Z,96036.78
2023-03-26T15:38:17.952Z,96041.34
2023-03-26T15:41:13.143Z,96041.91
2023-03-26T15:44:23.801Z,96039.38
2023-03-26T15:46:59.995Z,96046.72
2023-03-26T15:50:01.103Z,96046.47
2023-03-26T15:53:18.694Z,96048.38
2023-03-26T15:56:23.939Z,96040.38
2023-03-26T15:59:31.669Z,96037.19
2023-03-26T16:02:16.253Z,96030.31
2023-03-26T16:05:03.245Z,96022.72
2023-03-26T16:08:03.030Z,96027.19
2023-03-26T16:10:48.409Z,96023.66
2023-03-26T16:13:34.121Z,96025.34
2023-03-26T16:16:04.223Z,96030.78
2023-03-26T16:18:37.417Z,96026.78
2023-03-26T16:21:31.318Z,96012.91
2023-03-26T16:24:02.304Z,96015.00
2023-03-26T16:26:45.444Z,96011.72
2023-03-26T16:29:22.417Z,96017.81
2023-03-26T16:32:16.811Z,96018.69
2023-03-26T16:35:02.055Z,96015.13
2023-03-26T16:37:33.686Z,96019.16
2023-03-26T16:40:22.358Z,96013.38
2023-03-26T16:43:24.320Z,96016.69
2023-03-26T16:46:03.446Z,96011.69
2023-03-26T16:49:23.474Z,96012.47
2023-03-26T16:52:35.740Z,96016.88
2023-03-26T16:55:34.696Z,96009.69
2023-03-26T16:58:16.654Z,96023.56
2023-03-26T17:01:09.212Z,96017.16
2023-03-26T17:04:06.472Z,96021.84
2023-03-26T17:07:13.814Z,96022.31
2023-03-26T17:09:53.004Z,96028.06
2023-03-26T17:12:44.404Z,96021.81
2023-03-26T17:15:28.833Z,96029.91
2023-03-26T17:18:26.046Z,96028.03
2023-03-26T17:21:24.296Z,96030.81
2023-03-26T17:24:07.530Z,96029.09
2023-03-26T17:27:15.948Z,96036.59
2023-03-26T17:30:03.681Z,96046.00
2023-03-26T17:32:55.575Z,96039.31
2023-03-26T17:35:43.474Z,96041.50
2023-03-26T17:38:26.281Z,96046.16
2023-03-26T17:40:56.154Z,96049.28
2023-03-26T17:43:42.049Z,96047.88
2023-03-26T17:46:57.892Z,96047.47
2023-03-26T17:49:31.139Z,96040.31
2023-03-26T17:52:29.597Z,96038.72
2023-03-26T17:54:58.169Z,96042.31
2023-03-26T17:57:42.878Z,96038.28
2023-03-26T18:00:26.845Z,96034.09
2023-03-26T18:03:23.863Z,96038.69
2023-03-26T18:05:57.923Z,96029.72
2023-03-26T18:08:34.085Z,96024.38
2023-03-26T18:11:25.010Z,96033.41
2023-03-26T18:14:42.307Z,96036.09
2023-03-26T18:17:10.626Z,96044.16
2023-03-26T18:19:49.439Z,96039.75
2023-03-26T18:22:30.509Z,96029.06
2023-03-26T18:25:01.332Z,96027.75
2023-03-26T18:27:41.050Z,96035.69
2023-03-26T18:30:23.481Z,96028.94
2023-03-26T18:33:00.836Z,96028.41
2023-03-26T18:35:49.756Z,96030.63
2023-03-26T18:38:37.557Z,96026.78
2023-03-26T18:41:15.364Z,96026.19
2023-03-26T18:43:43.940Z,96020.13
2023-03-26T18:46:14.781Z,96010.66
2023-03-26T18:48:42.769Z,96016.84
2023-03-26T18:54:03.105Z,96007.84
2023-03-26T18:56:36.725Z,96005.56
2023-03-26T18:59:27.970Z,95997.16
2023-03-26T19:02:04.171Z,96009.88
2023-03-26T19:04:34.223Z,96010.78
2023-03-26T19:07:02.557Z,96004.03
2023-03-26T19:09:32.546Z,95998.66
2023-03-26T19:12:36.694Z,95995.25
2023-03-26T19:15:16.062Z,95993.22
2023-03-26T19:17:49.020Z,95992.09
2023-03-26T19:20:22.619Z,95992.09
2023-03-26T19:22:50.944Z,95977.91
2023-03-26T19:25:35.553Z,95973.88
2023-03-26T19:28:03.417Z,95968.84
2023-03-26T19:30:39.837Z,95968.13
2023-03-26T19:33:18.986Z,95967.13
2023-03-26T19:36:13.864Z,95956.56
2023-03-26T19:39:04.857Z,95959.22
2023-03-26T19:41:37.177Z,95959.63
2023-03-26T19:44:18.348Z,95955.25
2023-03-26T19:46:54.031Z,95951.78
2023-03-26T19:49:42.088Z,95941.69
2023-03-26T19:52:20.153Z,95937.25
2023-03-26T19:55:01.394Z,95926.09
2023-03-26T19:57:36.442Z,95921.19
2023-03-26T20:00:13.405Z,95910.31
2023-03-26T20:02:46.493Z,95909.00
2023-03-26T20:05:27.017Z,95901.72
2023-03-26T20:07:59.800Z,95906.19
2023-03-26T20:10:28.152Z,95902.72
2023-03-26T20:12:55.692Z,95900.81
2023-03-26T20:15:31.123Z,95892.50
2023-03-26T20:17:58.940Z,95896.19
2023-03-26T20:20:28.071Z,95891.84
2023-03-26T20:22:55.551Z,95891.84
2023-03-26T20:25:34.049Z,95876.50
2023-03-26T20:28:01.509Z,95876.78
2023-03-26T20:30:37.450Z,95875.81
2023-03-26T20:33:11.878Z,95864.78
2023-03-26T20:35:41.520Z,95862.28
2023-03-26T20:38:09.906Z,95868.22
2023-03-26T20:40:38.547Z,95851.09
2023-03-26T20:43:14.529Z,95844.47
2023-03-26T20:45:42.417Z,95842.38
2023-03-26T20:48:12.582Z,95845.53
2023-03-26T20:50:50.374Z,95828.66
2023-03-26T20:53:19.092Z,95822.56
2023-03-26T20:55:47.936Z,95819.63
2023-03-26T20:58:32.029Z,95816.44
2023-03-26T21:01:03.043Z,95828.91
2023-03-26T21:03:30.520Z,95834.00
2023-03-26T21:06:02.841Z,95827.00
2023-03-26T21:08:37.243Z,95835.03
2023-03-26T21:11:15.574Z,95835.72
2023-03-26T21:14:05.888Z,95836.16
2023-03-26T21:16:33.994Z,95826.41
2023-03-26T21:19:03.077Z,95829.78
2023-03-26T21:21:52.884Z,95820.22
2023-03-26T21:24:40.102Z,95820.72
2023-03-26T21:27:29.216Z,95820.19
2023-03-26T21:29:58.293Z,95814.09
2023-03-26T21:32:26.378Z,95815.88
2023-03-26T21:37:24.723Z,95807.41
2023-03-26T21:39:52.367Z,95805.13
2023-03-26T21:42:19.968Z,95799.06
2023-03-26T21:44:47.752Z,95794.47
2023-03-26T21:47:15.454Z,95798.81
2023-03-26T21:49:43.114Z,95806.88
2023-03-26T21:52:15.883Z,95809.94
2023-03-26T21:54:43.640Z,95807.63
2023-03-26T21:57:17.514Z,95811.13
2023-03-26T22:00:18.505Z,95805.34
2023-03-26T22:03:08.405Z,95803.69
2023-03-26T22:06:37.027Z,95802.00
2023-03-26T22:09:05.159Z,95791.38
2023-03-26T22:11:32.949Z,95787.44
2023-03-26T22:14:01.586Z,95787.91
2023-03-26T22:16:28.889Z,95786.19
2023-03-26T22:18:56.265Z,95788.13
2023-03-26T22:21:23.664Z,95780.78
2023-03-26T22:23:55.132Z,95769.16
2023-03-26T22:26:26.083Z,95769.34
2023-03-26T22:28:53.350Z,95758.59
2023-03-26T22:31:20.790Z,95768.56
2023-03-26T22:33:48.414Z,95764.00
2023-03-26T22:36:22.884Z,95765.38
2023-03-26T22:38:55.386Z,95759.03
2023-03-26T22:41:23.181Z,95760.97
2023-03-26T22:43:54.560Z,95758.25
2023-03-26T22:46:22.927Z,95762.09
2023-03-26T22:48:51.223Z,95764.53
2023-03-26T22:51:19.006Z,95761.06
2023-03-26T22:53:46.268Z,95764.72
2023-03-26T22:56:14.431Z,95760.94
2023-03-26T22:58:42.450Z,95755.78
2023-03-26T23:01:18.483Z,95748.88
2023-03-26T23:03:46.699Z,95747.28
2023-03-26T23:06:15.396Z,95745.72
2023-03-26T23:08:42.753Z,95738.25
2023-03-26T23:11:19.549Z,95740.75
2023-03-26T23:13:47.878Z,95740.03
2023-03-26T23:16:16.883Z,95737.16
2023-03-26T23:18:44.807Z,95737.06
2023-03-26T23:21:21.487Z,95736.78
2023-03-26T23:23:51.667Z,95734.09
2023-03-26T23:26:19.141Z,95740.53
2023-03-26T23:28:46.896Z,95741.38
2023-03-26T23:31:14.357Z,95740.22
2023-03-26T23:33:50.333Z,95745.06
2023-03-26T23:36:19.840Z,95739.28
2023-03-26T23:38:48.985Z,95742.59
2023-03-26T23:41:22.022Z,95754.47
2023-03-26T23:43:55.608Z,95762.88
2023-03-26T23:46:34.717Z,95757.06
2023-03-26T23:49:05.187Z,95762.78
2023-03-26T23:51:33.132Z,95760.69
2023-03-26T23:54:00.702Z,95759.38
2023-03-26T23:56:29.908Z,95760.69
2023-03-26T23:58:58.323Z,95755.19
